createdAt,value
2023-02-08T00:02:52.536Z,100.00
2023-02-08T00:05:55.587Z,100.00
2023-02-08T00:08:57.342Z,100.00
2023-02-08T00:11:59.032Z,100.00
2023-02-08T00:15:00.716Z,100.00
2023-02-08T00:18:02.417Z,100.00
2023-02-08T00:21:09.929Z,100.00
2023-02-08T00:24:11.673Z,100.00
2023-02-08T00:27:13.453Z,100.00
2023-02-08T00:30:15.254Z,100.00
2023-02-08T00:33:17.111Z,100.00
2023-02-08T00:36:20.332Z,100.00
2023-02-08T00:39:22.055Z,100.00
2023-02-08T00:42:23.792Z,100.00
2023-02-08T00:45:25.560Z,100.00
2023-02-08T00:48:27.993Z,100.00
2023-02-08T00:51:31.325Z,100.00
2023-02-08T00:54:32.967Z,100.00
2023-02-08T00:57:35.406Z,100.00
2023-02-08T01:00:37.210Z,100.00
2023-02-08T01:03:43.217Z,100.00
2023-02-08T01:06:46.260Z,100.00
2023-02-08T01:09:48.036Z,100.00
2023-02-08T01:12:49.786Z,100.00
2023-02-08T01:15:51.475Z,100.00
2023-02-08T01:18:54.970Z,100.00
2023-02-08T01:21:58.054Z,100.00
2023-02-08T01:25:01.017Z,100.00
2023-02-08T01:28:02.770Z,100.00
2023-02-08T01:31:06.982Z,100.00
2023-02-08T01:34:10.179Z,100.00
2023-02-08T01:37:13.159Z,100.00
2023-02-08T01:40:14.823Z,100.00
2023-02-08T01:43:21.866Z,100.00
2023-02-08T01:46:23.640Z,100.00
2023-02-08T01:49:28.265Z,100.00
2023-02-08T01:52:31.509Z,100.00
2023-02-08T01:55:38.393Z,100.00
2023-02-08T01:58:44.737Z,100.00
2023-02-08T02:01:51.308Z,100.00
2023-02-08T02:04:53.329Z,100.00
2023-02-08T02:07:57.698Z,100.00
2023-02-08T02:11:01.537Z,100.00
2023-02-08T02:14:04.162Z,100.00
2023-02-08T02:17:06.515Z,100.00
2023-02-08T02:20:18.281Z,100.00
2023-02-08T02:24:04.180Z,100.00
2023-02-08T02:27:19.650Z,100.00
2023-02-08T02:31:00.024Z,100.00
2023-02-08T02:34:09.757Z,100.00
2023-02-08T02:37:37.692Z,100.00
2023-02-08T02:40:48.308Z,100.00
2023-02-08T02:43:55.074Z,100.00
2023-02-08T02:47:03.637Z,100.00
2023-02-08T02:50:15.740Z,100.00
2023-02-08T02:53:24.114Z,100.00
2023-02-08T02:56:30.816Z,100.00
2023-02-08T02:59:33.695Z,100.00
2023-02-08T03:02:36.047Z,100.00
2023-02-08T03:05:39.168Z,100.00
2023-02-08T03:09:01.890Z,100.00
2023-02-08T03:12:16.432Z,100.00
2023-02-08T03:15:28.719Z,100.00
2023-02-08T03:18:37.008Z,100.00
2023-02-08T03:21:46.916Z,100.00
2023-02-08T03:24:54.501Z,100.00
2023-02-08T03:28:04.224Z,100.00
2023-02-08T03:31:13.006Z,100.00
2023-02-08T03:34:19.484Z,100.00
2023-02-08T03:37:27.304Z,100.00
2023-02-08T03:40:35.401Z,100.00
2023-02-08T03:43:41.860Z,100.00
2023-02-08T03:46:48.578Z,100.00
2023-02-08T03:49:52.842Z,100.00
2023-02-08T03:52:56.816Z,100.00
2023-02-08T03:56:04.514Z,100.00
2023-02-08T03:59:11.309Z,100.00
2023-02-08T04:02:17.437Z,100.00
2023-02-08T04:05:20.241Z,100.00
2023-02-08T04:08:25.895Z,100.00
2023-02-08T04:11:27.773Z,100.00
2023-02-08T04:14:29.484Z,100.00
2023-02-08T04:17:32.267Z,100.00
2023-02-08T04:20:34.007Z,100.00
2023-02-08T04:23:37.029Z,100.00
2023-02-08T04:26:38.798Z,100.00
2023-02-08T04:29:41.624Z,100.00
2023-02-08T04:32:43.302Z,100.00
2023-02-08T04:35:44.960Z,100.00
2023-02-08T04:38:47.987Z,100.00
2023-02-08T04:41:49.728Z,100.00
2023-02-08T04:44:51.941Z,100.00
2023-02-08T04:47:53.989Z,100.00
2023-02-08T04:50:56.731Z,100.00
2023-02-08T04:53:59.753Z,100.00
2023-02-08T04:57:01.442Z,100.00
2023-02-08T05:00:04.815Z,100.00
2023-02-08T05:03:06.524Z,100.00
2023-02-08T05:06:08.295Z,100.00
2023-02-08T05:09:11.307Z,100.00
2023-02-08T05:12:13.114Z,100.00
2023-02-08T05:15:14.795Z,100.00
2023-02-08T05:18:16.514Z,100.00
2023-02-08T05:21:18.189Z,100.00
2023-02-08T05:24:21.288Z,100.00
2023-02-08T05:27:23.076Z,100.00
2023-02-08T05:30:24.827Z,100.00
2023-02-08T05:33:26.544Z,100.00
2023-02-08T05:36:28.410Z,100.00
2023-02-08T05:39:31.470Z,100.00
2023-02-08T05:42:33.168Z,100.00
2023-02-08T05:45:34.786Z,100.00
2023-02-08T05:48:36.679Z,100.00
2023-02-08T05:51:38.354Z,100.00
2023-02-08T05:54:41.372Z,100.00
2023-02-08T05:57:43.011Z,100.00
2023-02-08T06:00:45.230Z,100.00
2023-02-08T06:03:47.246Z,100.00
2023-02-08T06:06:49.033Z,100.00
2023-02-08T06:09:52.233Z,100.00
2023-02-08T06:12:53.927Z,100.00
2023-02-08T06:15:55.834Z,100.00
2023-02-08T06:18:57.754Z,100.00
2023-02-08T06:21:59.573Z,100.00
2023-02-08T06:25:02.732Z,100.00
2023-02-08T06:28:04.909Z,100.00
2023-02-08T06:31:06.685Z,100.00
2023-02-08T06:34:08.391Z,100.00
2023-02-08T06:37:10.083Z,100.00
2023-02-08T06:40:13.164Z,100.00
2023-02-08T06:43:16.404Z,100.00
2023-02-08T06:46:18.141Z,100.00
2023-02-08T06:49:20.056Z,100.00
2023-02-08T06:52:22.074Z,100.00
2023-02-08T06:55:25.133Z,100.00
2023-02-08T06:58:27.146Z,100.00
2023-02-08T07:01:28.936Z,100.00
2023-02-08T07:04:30.963Z,100.00
2023-02-08T07:07:32.723Z,100.00
2023-02-08T07:10:38.684Z,100.00
2023-02-08T07:13:40.642Z,100.00
2023-02-08T07:16:43.577Z,100.00
2023-02-08T07:19:45.402Z,100.00
2023-02-08T07:22:47.107Z,100.00
2023-02-08T07:25:58.488Z,100.00
2023-02-08T07:29:00.261Z,100.00
2023-02-08T07:32:03.359Z,100.00
2023-02-08T07:35:05.563Z,100.00
2023-02-08T07:38:07.249Z,100.00
2023-02-08T07:41:12.553Z,100.00
2023-02-08T07:44:14.218Z,100.00
2023-02-08T07:47:17.062Z,100.00
2023-02-08T07:50:19.228Z,100.00
2023-02-08T07:53:20.901Z,100.00
2023-02-08T07:56:24.196Z,100.00
2023-02-08T07:59:25.987Z,100.00
2023-02-08T08:02:27.731Z,100.00
2023-02-08T08:05:29.491Z,100.00
2023-02-08T08:08:31.188Z,100.00
2023-02-08T08:11:34.198Z,100.00
2023-02-08T08:14:35.908Z,100.00
2023-02-08T08:17:39.345Z,100.00
2023-02-08T08:20:41.391Z,100.00
2023-02-08T08:23:43.286Z,100.00
2023-02-08T08:26:46.462Z,100.00
2023-02-08T08:29:48.369Z,100.00
2023-02-08T08:32:50.152Z,100.00
2023-02-08T08:35:51.949Z,100.00
2023-02-08T08:38:53.693Z,100.00
2023-02-08T08:41:59.388Z,100.00
2023-02-08T08:45:01.091Z,100.00
2023-02-08T08:48:04.035Z,100.00
2023-02-08T08:51:06.563Z,100.00
2023-02-08T08:54:08.841Z,100.00
2023-02-08T08:57:11.983Z,100.00
2023-02-08T09:00:14.834Z,100.00
2023-02-08T09:03:16.654Z,100.00
2023-02-08T09:06:18.759Z,100.00
2023-02-08T09:09:21.489Z,100.00
2023-02-08T09:12:24.613Z,100.00
2023-02-08T09:15:26.407Z,100.00
2023-02-08T09:18:28.151Z,100.00
2023-02-08T09:21:30.142Z,100.00
2023-02-08T09:24:31.899Z,100.00
2023-02-08T09:27:35.516Z,100.00
2023-02-08T09:30:37.236Z,100.00
2023-02-08T09:33:39.341Z,100.00
2023-02-08T09:36:41.530Z,100.00
2023-02-08T09:39:43.937Z,100.00
2023-02-08T09:42:54.066Z,100.00
2023-02-08T09:46:00.543Z,100.00
2023-02-08T09:49:05.418Z,100.00
2023-02-08T09:52:13.271Z,100.00
2023-02-08T09:55:25.290Z,100.00
2023-02-08T09:58:34.253Z,100.00
2023-02-08T10:01:36.601Z,100.00
2023-02-08T10:04:51.522Z,100.00
2023-02-08T10:07:53.681Z,100.00
2023-02-08T10:10:59.790Z,100.00
2023-02-08T10:14:27.469Z,100.00
2023-02-08T10:17:58.148Z,100.00
2023-02-08T10:21:24.691Z,100.00
2023-02-08T10:24:42.049Z,100.00
2023-02-08T10:27:55.178Z,100.00
2023-02-08T10:31:05.394Z,100.00
2023-02-08T10:34:17.674Z,100.00
2023-02-08T10:37:21.647Z,100.00
2023-02-08T10:40:31.925Z,100.00
2023-02-08T10:43:40.461Z,100.00
2023-02-08T10:46:47.844Z,100.00
2023-02-08T10:49:57.861Z,100.00
2023-02-08T10:52:59.827Z,100.00
2023-02-08T10:56:01.822Z,100.00
2023-02-08T10:59:13.553Z,100.00
2023-02-08T11:02:22.947Z,100.00
2023-02-08T11:05:33.133Z,100.00
2023-02-08T11:08:55.266Z,100.00
2023-02-08T11:11:59.102Z,100.00
2023-02-08T11:15:00.948Z,100.00
2023-02-08T11:18:06.294Z,100.00
2023-02-08T11:21:10.596Z,100.00
2023-02-08T11:24:27.048Z,100.00
2023-02-08T11:27:35.022Z,100.00
2023-02-08T11:30:37.034Z,100.00
2023-02-08T11:34:04.443Z,100.00
2023-02-08T11:37:14.680Z,100.00
2023-02-08T11:40:21.619Z,100.00
2023-02-08T11:43:26.584Z,100.00
2023-02-08T11:46:32.104Z,100.00
2023-02-08T11:49:39.399Z,100.00
2023-02-08T11:52:43.242Z,100.00
2023-02-08T11:55:45.174Z,100.00
2023-02-08T11:59:02.650Z,99.89
2023-02-08T12:02:18.450Z,97.72
2023-02-08T12:05:35.002Z,87.16
2023-02-08T12:08:43.157Z,86.34
2023-02-08T12:11:46.153Z,88.79
2023-02-08T12:14:57.323Z,88.76
2023-02-08T12:18:19.137Z,86.79
2023-02-08T12:21:26.688Z,85.59
2023-02-08T12:24:43.097Z,89.87
2023-02-08T12:27:54.114Z,82.78
2023-02-08T12:31:05.972Z,82.25
2023-02-08T12:34:13.920Z,82.25
2023-02-08T12:37:49.151Z,82.35
2023-02-08T12:41:01.333Z,87.86
2023-02-08T12:44:13.931Z,81.63
2023-02-08T12:47:33.437Z,83.10
2023-02-08T12:50:42.012Z,78.36
2023-02-08T12:53:49.020Z,82.48
2023-02-08T12:57:01.661Z,82.04
2023-02-08T13:00:07.728Z,88.14
2023-02-08T13:03:20.650Z,83.07
2023-02-08T13:06:27.249Z,79.73
2023-02-08T13:09:39.466Z,78.75
2023-02-08T13:12:45.808Z,83.04
2023-02-08T13:15:56.302Z,70.60
2023-02-08T13:19:18.255Z,67.65
2023-02-08T13:22:21.541Z,68.20
2023-02-08T13:25:30.014Z,67.92
2023-02-08T13:28:34.372Z,64.56
2023-02-08T13:31:41.512Z,64.23
2023-02-08T13:34:46.744Z,67.50
2023-02-08T13:37:52.277Z,66.84
2023-02-08T13:41:16.339Z,64.34
2023-02-08T13:44:20.652Z,63.14
2023-02-08T13:47:25.488Z,56.63
2023-02-08T13:50:43.660Z,55.25
2023-02-08T13:54:12.239Z,55.16
2023-02-08T13:57:52.311Z,54.65
2023-02-08T14:01:17.296Z,59.67
2023-02-08T14:04:37.513Z,56.60
2023-02-08T14:07:45.807Z,53.63
2023-02-08T14:11:00.393Z,65.57
2023-02-08T14:14:12.792Z,65.16
2023-02-08T14:17:23.583Z,67.35
2023-02-08T14:20:28.201Z,69.19
2023-02-08T14:23:31.403Z,66.82
2023-02-08T14:26:34.801Z,75.52
2023-02-08T14:29:38.395Z,82.38
2023-02-08T14:32:43.362Z,85.08
2023-02-08T14:35:54.144Z,83.92
2023-02-08T14:39:24.365Z,86.00
2023-02-08T14:42:55.034Z,83.54
2023-02-08T14:46:18.924Z,88.93
2023-02-08T14:49:39.504Z,88.86
2023-02-08T14:52:46.592Z,89.89
2023-02-08T14:55:52.105Z,90.68
2023-02-08T14:58:57.121Z,93.70
2023-02-08T15:02:01.424Z,94.42
2023-02-08T15:05:09.761Z,93.40
2023-02-08T15:08:13.176Z,96.71
2023-02-08T15:11:21.673Z,95.80
2023-02-08T15:14:23.809Z,95.03
2023-02-08T15:17:34.134Z,94.77
2023-02-08T15:20:36.622Z,96.91
2023-02-08T15:23:38.454Z,92.72
2023-02-08T15:26:45.243Z,94.14
2023-02-08T15:29:48.684Z,99.98
2023-02-08T15:32:52.109Z,100.00
2023-02-08T15:35:59.962Z,100.00
2023-02-08T15:39:09.178Z,100.00
2023-02-08T15:42:16.474Z,100.00
2023-02-08T15:45:24.591Z,100.00
2023-02-08T15:48:29.184Z,100.00
2023-02-08T15:51:31.065Z,100.00
2023-02-08T15:54:33.291Z,100.00
2023-02-08T15:57:39.565Z,100.00
2023-02-08T16:00:44.352Z,100.00
2023-02-08T16:03:50.418Z,100.00
2023-02-08T16:06:55.302Z,100.00
2023-02-08T16:09:57.821Z,100.00
2023-02-08T16:13:02.498Z,100.00
2023-02-08T16:16:19.574Z,100.00
2023-02-08T16:19:26.077Z,100.00
2023-02-08T16:22:31.880Z,100.00
2023-02-08T16:25:37.771Z,100.00
2023-02-08T16:28:39.903Z,100.00
2023-02-08T16:31:44.888Z,100.00
2023-02-08T16:34:48.168Z,100.00
2023-02-08T16:37:55.726Z,100.00
2023-02-08T16:41:11.894Z,100.00
2023-02-08T16:44:23.828Z,100.00
2023-02-08T16:47:28.190Z,100.00
2023-02-08T16:50:31.304Z,100.00
2023-02-08T16:53:42.003Z,100.00
2023-02-08T16:56:46.583Z,100.00
2023-02-08T16:59:48.113Z,100.00
2023-02-08T17:02:50.400Z,100.00
2023-02-08T17:05:53.839Z,100.00
2023-02-08T17:08:56.017Z,100.00
2023-02-08T17:11:57.793Z,100.00
2023-02-08T17:14:59.611Z,100.00
2023-02-08T17:18:01.887Z,100.00
2023-02-08T17:21:05.546Z,100.00
2023-02-08T17:24:07.439Z,100.00
2023-02-08T17:27:12.504Z,100.00
2023-02-08T17:30:19.907Z,100.00
2023-02-08T17:33:21.722Z,100.00
2023-02-08T17:36:24.889Z,100.00
2023-02-08T17:39:26.781Z,100.00
2023-02-08T17:42:28.544Z,100.00
2023-02-08T17:45:30.718Z,100.00
2023-02-08T17:48:32.444Z,100.00
2023-02-08T17:51:35.584Z,100.00
2023-02-08T17:54:37.641Z,100.00
2023-02-08T17:57:41.238Z,100.00
2023-02-08T18:00:43.610Z,100.00
2023-02-08T18:03:46.417Z,100.00
2023-02-08T18:06:49.542Z,100.00
2023-02-08T18:09:51.347Z,100.00
2023-02-08T18:12:53.159Z,100.00
2023-02-08T18:15:54.931Z,100.00
2023-02-08T18:18:57.806Z,100.00
2023-02-08T18:22:03.748Z,100.00
2023-02-08T18:25:06.423Z,100.00
2023-02-08T18:28:08.177Z,100.00
2023-02-08T18:31:14.420Z,100.00
2023-02-08T18:34:17.057Z,100.00
2023-02-08T18:37:21.672Z,100.00
2023-02-08T18:40:23.463Z,100.00
2023-02-08T18:43:27.280Z,100.00
2023-02-08T18:46:29.584Z,100.00
2023-02-08T18:49:31.427Z,100.00
2023-02-08T18:52:36.710Z,100.00
2023-02-08T18:55:38.711Z,100.00
2023-02-08T18:58:40.784Z,100.00
2023-02-08T19:01:42.493Z,100.00
2023-02-08T19:04:44.249Z,100.00
2023-02-08T19:07:47.497Z,100.00
2023-02-08T19:10:49.277Z,100.00
2023-02-08T19:13:52.108Z,100.00
2023-02-08T19:16:54.221Z,100.00
2023-02-08T19:19:55.964Z,100.00
2023-02-08T19:22:59.190Z,100.00
2023-02-08T19:26:02.062Z,100.00
2023-02-08T19:29:06.535Z,100.00
2023-02-08T19:32:08.523Z,100.00
2023-02-08T19:35:10.515Z,100.00
2023-02-08T19:38:13.685Z,100.00
2023-02-08T19:41:17.431Z,100.00
2023-02-08T19:44:20.738Z,100.00
2023-02-08T19:47:43.498Z,100.00
2023-02-08T19:50:54.092Z,100.00
2023-02-08T19:53:58.614Z,100.00
2023-02-08T19:57:00.438Z,100.00
2023-02-08T20:00:04.438Z,100.00
2023-02-08T20:03:21.510Z,100.00
2023-02-08T20:06:25.393Z,100.00
2023-02-08T20:09:28.439Z,100.00
2023-02-08T20:12:30.407Z,100.00
2023-02-08T20:15:34.164Z,100.00
2023-02-08T20:18:35.847Z,100.00
2023-02-08T20:21:40.180Z,100.00
2023-02-08T20:24:43.220Z,100.00
2023-02-08T20:27:45.276Z,100.00
2023-02-08T20:30:47.039Z,100.00
2023-02-08T20:33:48.987Z,100.00
2023-02-08T20:37:05.863Z,100.00
2023-02-08T20:40:11.691Z,100.00
2023-02-08T20:43:13.457Z,100.00
2023-02-08T20:46:17.594Z,100.00
2023-02-08T20:49:21.960Z,100.00
2023-02-08T20:52:23.782Z,100.00
2023-02-08T20:55:26.983Z,100.00
2023-02-08T20:58:28.775Z,100.00
2023-02-08T21:01:30.976Z,100.00
2023-02-08T21:04:32.790Z,100.00
2023-02-08T21:07:34.697Z,100.00
2023-02-08T21:10:37.862Z,100.00
2023-02-08T21:13:39.688Z,100.00
2023-02-08T21:16:41.651Z,100.00
2023-02-08T21:19:43.354Z,100.00
2023-02-08T21:22:45.049Z,100.00
2023-02-08T21:25:48.510Z,100.00
2023-02-08T21:28:52.931Z,100.00
2023-02-08T21:31:56.262Z,100.00
2023-02-08T21:34:58.099Z,100.00
2023-02-08T21:37:59.820Z,100.00
2023-02-08T21:41:07.823Z,100.00
2023-02-08T21:44:10.453Z,100.00
2023-02-08T21:47:12.138Z,100.00
2023-02-08T21:50:32.742Z,100.00
2023-02-08T21:53:53.305Z,100.00
2023-02-08T21:56:58.002Z,100.00
2023-02-08T22:00:01.425Z,100.00
2023-02-08T22:03:03.304Z,100.00
2023-02-08T22:06:05.460Z,100.00
2023-02-08T22:09:07.191Z,100.00
2023-02-08T22:12:15.291Z,100.00
2023-02-08T22:15:19.354Z,100.00
2023-02-08T22:18:21.086Z,100.00
2023-02-08T22:21:22.775Z,100.00
2023-02-08T22:24:24.681Z,100.00
2023-02-08T22:27:27.946Z,100.00
2023-02-08T22:30:29.780Z,100.00
2023-02-08T22:33:31.679Z,100.00
2023-02-08T22:36:33.557Z,100.00
2023-02-08T22:39:35.752Z,100.00
2023-02-08T22:42:39.744Z,100.00
2023-02-08T22:45:44.423Z,100.00
2023-02-08T22:48:46.163Z,100.00
2023-02-08T22:51:47.871Z,100.00
2023-02-08T22:54:50.807Z,100.00
2023-02-08T22:57:54.047Z,100.00
2023-02-08T23:00:55.827Z,100.00
2023-02-08T23:03:59.245Z,100.00
2023-02-08T23:07:01.058Z,100.00
2023-02-08T23:10:03.187Z,100.00
2023-02-08T23:13:07.093Z,100.00
2023-02-08T23:16:12.567Z,100.00
2023-02-08T23:19:15.266Z,100.00
2023-02-08T23:22:16.947Z,100.00
2023-02-08T23:25:19.109Z,100.00
2023-02-08T23:28:22.374Z,100.00
2023-02-08T23:31:24.253Z,100.00
2023-02-08T23:34:26.013Z,100.00
2023-02-08T23:37:27.813Z,100.00
2023-02-08T23:40:29.561Z,100.00
2023-02-08T23:43:32.949Z,100.00
2023-02-08T23:46:34.824Z,100.00
2023-02-08T23:49:36.545Z,100.00
2023-02-08T23:52:38.312Z,100.00
2023-02-08T23:55:40.072Z,100.00
2023-02-08T23:58:43.916Z,100.00
